sensor_id;sensor_type;location;lat;lon;timestamp;P1;durP1;ratioP1;P2;durP2;ratioP2
43319;SDS011;28914;48.722;9.332;2023-07-20T00:04:17;2.13;;;1.80;;
43319;SDS011;28914;48.722;9.332;2023-07-20T00:09:38;1.90;;;1.33;;
43319;SDS011;28914;48.722;9.332;2023-07-20T00:14:57;1.80;;;1.50;;
43319;SDS011;28914;48.722;9.332;2023-07-20T00:20:16;4.67;;;2.47;;
43319;SDS011;28914;48.722;9.332;2023-07-20T00:25:35;2.07;;;1.40;;
43319;SDS011;28914;48.722;9.332;2023-07-20T00:30:54;2.80;;;1.53;;
43319;SDS011;28914;48.722;9.332;2023-07-20T00:36:14;2.37;;;1.50;;
43319;SDS011;28914;48.722;9.332;2023-07-20T00:41:33;2.47;;;1.80;;
43319;SDS011;28914;48.722;9.332;2023-07-20T00:46:52;2.40;;;1.63;;
43319;SDS011;28914;48.722;9.332;2023-07-20T00:52:11;3.40;;;1.63;;
43319;SDS011;28914;48.722;9.332;2023-07-20T00:57:33;2.17;;;1.40;;
43319;SDS011;28914;48.722;9.332;2023-07-20T01:02:52;2.73;;;1.60;;
43319;SDS011;28914;48.722;9.332;2023-07-20T01:14:04;2.07;;;1.83;;
43319;SDS011;28914;48.722;9.332;2023-07-20T01:19:23;3.10;;;1.63;;
43319;SDS011;28914;48.722;9.332;2023-07-20T01:24:57;1.67;;;1.30;;
43319;SDS011;28914;48.722;9.332;2023-07-20T01:30:52;2.00;;;1.80;;
43319;SDS011;28914;48.722;9.332;2023-07-20T01:36:18;2.07;;;1.57;;
43319;SDS011;28914;48.722;9.332;2023-07-20T01:41:37;2.73;;;1.77;;
43319;SDS011;28914;48.722;9.332;2023-07-20T01:46:57;1.80;;;1.70;;
43319;SDS011;28914;48.722;9.332;2023-07-20T01:52:16;2.10;;;1.33;;
43319;SDS011;28914;48.722;9.332;2023-07-20T01:57:35;1.97;;;1.43;;
43319;SDS011;28914;48.722;9.332;2023-07-20T02:02:55;2.67;;;1.60;;
43319;SDS011;28914;48.722;9.332;2023-07-20T02:08:14;2.10;;;1.70;;
43319;SDS011;28914;48.722;9.332;2023-07-20T02:13:35;2.57;;;1.70;;
43319;SDS011;28914;48.722;9.332;2023-07-20T02:18:54;1.97;;;1.57;;
43319;SDS011;28914;48.722;9.332;2023-07-20T02:24:15;2.20;;;1.73;;
43319;SDS011;28914;48.722;9.332;2023-07-20T02:29:34;1.83;;;1.63;;
43319;SDS011;28914;48.722;9.332;2023-07-20T02:34:54;2.00;;;1.60;;
43319;SDS011;28914;48.722;9.332;2023-07-20T02:40:13;1.83;;;1.60;;
43319;SDS011;28914;48.722;9.332;2023-07-20T02:45:33;1.87;;;1.43;;
43319;SDS011;28914;48.722;9.332;2023-07-20T02:50:52;2.30;;;1.50;;
43319;SDS011;28914;48.722;9.332;2023-07-20T02:56:11;2.10;;;1.60;;
43319;SDS011;28914;48.722;9.332;2023-07-20T03:01:30;2.10;;;1.63;;
43319;SDS011;28914;48.722;9.332;2023-07-20T03:06:50;2.13;;;1.77;;
43319;SDS011;28914;48.722;9.332;2023-07-20T03:12:09;3.53;;;1.80;;
43319;SDS011;28914;48.722;9.332;2023-07-20T03:17:28;2.87;;;1.93;;
43319;SDS011;28914;48.722;9.332;2023-07-20T03:22:47;3.00;;;1.77;;
43319;SDS011;28914;48.722;9.332;2023-07-20T03:28:06;2.77;;;1.77;;
43319;SDS011;28914;48.722;9.332;2023-07-20T03:33:26;2.87;;;1.80;;
43319;SDS011;28914;48.722;9.332;2023-07-20T03:38:47;3.90;;;2.33;;
43319;SDS011;28914;48.722;9.332;2023-07-20T03:44:06;3.30;;;1.90;;
43319;SDS011;28914;48.722;9.332;2023-07-20T03:49:25;4.10;;;2.00;;
43319;SDS011;28914;48.722;9.332;2023-07-20T03:54:45;2.53;;;2.23;;
43319;SDS011;28914;48.722;9.332;2023-07-20T04:00:04;3.20;;;2.00;;
43319;SDS011;28914;48.722;9.332;2023-07-20T04:05:26;3.50;;;1.73;;
43319;SDS011;28914;48.722;9.332;2023-07-20T04:10:45;3.13;;;2.43;;
43319;SDS011;28914;48.722;9.332;2023-07-20T04:16:04;2.93;;;1.93;;
43319;SDS011;28914;48.722;9.332;2023-07-20T04:21:26;3.23;;;2.13;;
43319;SDS011;28914;48.722;9.332;2023-07-20T04:26:46;3.50;;;2.00;;
43319;SDS011;28914;48.722;9.332;2023-07-20T04:32:05;3.37;;;2.60;;
43319;SDS011;28914;48.722;9.332;2023-07-20T04:37:25;2.80;;;2.50;;
43319;SDS011;28914;48.722;9.332;2023-07-20T04:42:44;3.50;;;1.80;;
43319;SDS011;28914;48.722;9.332;2023-07-20T04:48:06;3.47;;;2.17;;
43319;SDS011;28914;48.722;9.332;2023-07-20T04:53:27;2.23;;;2.00;;
43319;SDS011;28914;48.722;9.332;2023-07-20T04:58:47;4.73;;;2.40;;
43319;SDS011;28914;48.722;9.332;2023-07-20T05:04:06;3.60;;;2.47;;
43319;SDS011;28914;48.722;9.332;2023-07-20T05:09:25;2.47;;;1.83;;
43319;SDS011;28914;48.722;9.332;2023-07-20T05:14:44;4.83;;;3.00;;
43319;SDS011;28914;48.722;9.332;2023-07-20T05:20:04;4.57;;;2.53;;
43319;SDS011;28914;48.722;9.332;2023-07-20T05:25:23;3.60;;;2.07;;
43319;SDS011;28914;48.722;9.332;2023-07-20T05:30:42;2.97;;;2.40;;
43319;SDS011;28914;48.722;9.332;2023-07-20T05:36:01;3.57;;;2.07;;
43319;SDS011;28914;48.722;9.332;2023-07-20T05:41:21;3.57;;;2.40;;
43319;SDS011;28914;48.722;9.332;2023-07-20T05:46:40;4.60;;;2.13;;
43319;SDS011;28914;48.722;9.332;2023-07-20T05:52:00;2.97;;;2.00;;
43319;SDS011;28914;48.722;9.332;2023-07-20T05:57:19;3.70;;;2.60;;
43319;SDS011;28914;48.722;9.332;2023-07-20T06:02:39;4.67;;;2.70;;
43319;SDS011;28914;48.722;9.332;2023-07-20T06:07:58;6.77;;;2.30;;
43319;SDS011;28914;48.722;9.332;2023-07-20T06:13:18;2.77;;;1.93;;
43319;SDS011;28914;48.722;9.332;2023-07-20T06:18:37;3.10;;;2.07;;
43319;SDS011;28914;48.722;9.332;2023-07-20T06:23:57;3.40;;;1.67;;
43319;SDS011;28914;48.722;9.332;2023-07-20T06:29:17;3.53;;;2.30;;
43319;SDS011;28914;48.722;9.332;2023-07-20T06:34:37;2.27;;;1.90;;
43319;SDS011;28914;48.722;9.332;2023-07-20T06:39:57;2.60;;;2.00;;
43319;SDS011;28914;48.722;9.332;2023-07-20T06:45:16;2.60;;;1.83;;
43319;SDS011;28914;48.722;9.332;2023-07-20T06:50:35;1.90;;;1.40;;
43319;SDS011;28914;48.722;9.332;2023-07-20T06:55:54;2.83;;;1.40;;
43319;SDS011;28914;48.722;9.332;2023-07-20T07:01:18;2.20;;;1.70;;
43319;SDS011;28914;48.722;9.332;2023-07-20T07:06:37;2.13;;;1.60;;
43319;SDS011;28914;48.722;9.332;2023-07-20T07:11:56;3.03;;;2.17;;
43319;SDS011;28914;48.722;9.332;2023-07-20T07:17:16;5.40;;;2.03;;
43319;SDS011;28914;48.722;9.332;2023-07-20T07:22:35;2.23;;;1.70;;
43319;SDS011;28914;48.722;9.332;2023-07-20T07:27:54;1.90;;;1.47;;
43319;SDS011;28914;48.722;9.332;2023-07-20T07:33:14;1.67;;;1.40;;
43319;SDS011;28914;48.722;9.332;2023-07-20T07:38:33;3.03;;;1.80;;
43319;SDS011;28914;48.722;9.332;2023-07-20T07:43:53;4.57;;;1.73;;
43319;SDS011;28914;48.722;9.332;2023-07-20T07:49:12;2.43;;;1.60;;
43319;SDS011;28914;48.722;9.332;2023-07-20T07:54:31;3.20;;;1.80;;
43319;SDS011;28914;48.722;9.332;2023-07-20T07:59:50;2.47;;;1.83;;
43319;SDS011;28914;48.722;9.332;2023-07-20T08:05:09;3.40;;;1.77;;
43319;SDS011;28914;48.722;9.332;2023-07-20T08:10:28;2.07;;;1.50;;
43319;SDS011;28914;48.722;9.332;2023-07-20T08:15:51;3.23;;;2.00;;
43319;SDS011;28914;48.722;9.332;2023-07-20T08:21:11;2.83;;;1.80;;
43319;SDS011;28914;48.722;9.332;2023-07-20T08:26:31;2.87;;;1.80;;
43319;SDS011;28914;48.722;9.332;2023-07-20T08:31:50;2.80;;;1.53;;
43319;SDS011;28914;48.722;9.332;2023-07-20T08:37:09;2.80;;;1.70;;
43319;SDS011;28914;48.722;9.332;2023-07-20T08:42:31;5.83;;;1.97;;
43319;SDS011;28914;48.722;9.332;2023-07-20T08:47:51;2.40;;;1.98;;
43319;SDS011;28914;48.722;9.332;2023-07-20T08:53:11;1.80;;;1.60;;
43319;SDS011;28914;48.722;9.332;2023-07-20T08:58:31;2.10;;;1.88;;
43319;SDS011;28914;48.722;9.332;2023-07-20T09:03:53;2.40;;;1.73;;
43319;SDS011;28914;48.722;9.332;2023-07-20T09:09:12;3.35;;;2.03;;
43319;SDS011;28914;48.722;9.332;2023-07-20T09:14:31;2.30;;;1.48;;
43319;SDS011;28914;48.722;9.332;2023-07-20T09:19:51;2.13;;;1.42;;
43319;SDS011;28914;48.722;9.332;2023-07-20T09:25:13;2.10;;;1.35;;
43319;SDS011;28914;48.722;9.332;2023-07-20T09:30:34;1.50;;;1.30;;
43319;SDS011;28914;48.722;9.332;2023-07-20T09:35:53;3.10;;;1.50;;
43319;SDS011;28914;48.722;9.332;2023-07-20T09:41:14;1.65;;;1.42;;
43319;SDS011;28914;48.722;9.332;2023-07-20T09:46:46;1.73;;;1.33;;
43319;SDS011;28914;48.722;9.332;2023-07-20T09:52:08;2.35;;;1.38;;
43319;SDS011;28914;48.722;9.332;2023-07-20T09:57:28;1.60;;;1.30;;
43319;SDS011;28914;48.722;9.332;2023-07-20T10:02:48;2.25;;;1.25;;
43319;SDS011;28914;48.722;9.332;2023-07-20T10:08:11;1.58;;;1.45;;
43319;SDS011;28914;48.722;9.332;2023-07-20T10:13:31;2.53;;;1.38;;
43319;SDS011;28914;48.722;9.332;2023-07-20T10:19:01;2.70;;;1.50;;
43319;SDS011;28914;48.722;9.332;2023-07-20T10:24:26;1.83;;;1.42;;
43319;SDS011;28914;48.722;9.332;2023-07-20T10:29:46;2.00;;;1.58;;
43319;SDS011;28914;48.722;9.332;2023-07-20T10:35:13;1.67;;;1.17;;
43319;SDS011;28914;48.722;9.332;2023-07-20T10:40:36;1.88;;;1.48;;
43319;SDS011;28914;48.722;9.332;2023-07-20T10:45:57;1.42;;;1.27;;
43319;SDS011;28914;48.722;9.332;2023-07-20T10:51:20;2.55;;;1.35;;
43319;SDS011;28914;48.722;9.332;2023-07-20T10:56:40;2.03;;;1.67;;
43319;SDS011;28914;48.722;9.332;2023-07-20T11:01:59;1.55;;;1.13;;
43319;SDS011;28914;48.722;9.332;2023-07-20T11:07:57;1.65;;;1.40;;
43319;SDS011;28914;48.722;9.332;2023-07-20T11:13:16;2.05;;;1.73;;
43319;SDS011;28914;48.722;9.332;2023-07-20T11:18:35;2.35;;;1.70;;
43319;SDS011;28914;48.722;9.332;2023-07-20T11:23:58;1.33;;;1.10;;
43319;SDS011;28914;48.722;9.332;2023-07-20T11:29:19;1.92;;;1.40;;
43319;SDS011;28914;48.722;9.332;2023-07-20T11:34:40;2.17;;;1.40;;
43319;SDS011;28914;48.722;9.332;2023-07-20T11:39:59;2.10;;;1.48;;
43319;SDS011;28914;48.722;9.332;2023-07-20T11:45:19;2.47;;;1.30;;
43319;SDS011;28914;48.722;9.332;2023-07-20T11:50:39;1.93;;;1.20;;
43319;SDS011;28914;48.722;9.332;2023-07-20T11:55:58;1.67;;;1.40;;
43319;SDS011;28914;48.722;9.332;2023-07-20T12:01:17;3.53;;;1.20;;
43319;SDS011;28914;48.722;9.332;2023-07-20T12:06:37;2.00;;;1.00;;
43319;SDS011;28914;48.722;9.332;2023-07-20T12:11:56;2.30;;;1.20;;
43319;SDS011;28914;48.722;9.332;2023-07-20T12:17:15;1.80;;;1.27;;
43319;SDS011;28914;48.722;9.332;2023-07-20T12:22:38;1.40;;;1.00;;
43319;SDS011;28914;48.722;9.332;2023-07-20T12:28:04;2.03;;;1.20;;
43319;SDS011;28914;48.722;9.332;2023-07-20T12:33:24;1.50;;;1.17;;
43319;SDS011;28914;48.722;9.332;2023-07-20T12:38:43;1.93;;;1.40;;
43319;SDS011;28914;48.722;9.332;2023-07-20T12:44:02;1.70;;;1.40;;
43319;SDS011;28914;48.722;9.332;2023-07-20T12:49:22;1.37;;;0.90;;
43319;SDS011;28914;48.722;9.332;2023-07-20T12:54:41;1.87;;;1.30;;
43319;SDS011;28914;48.722;9.332;2023-07-20T13:00:00;1.70;;;1.07;;
43319;SDS011;28914;48.722;9.332;2023-07-20T13:05:22;2.33;;;1.37;;
43319;SDS011;28914;48.722;9.332;2023-07-20T13:10:42;2.60;;;1.10;;
43319;SDS011;28914;48.722;9.332;2023-07-20T13:16:02;2.33;;;1.10;;
43319;SDS011;28914;48.722;9.332;2023-07-20T13:21:21;2.43;;;1.53;;
43319;SDS011;28914;48.722;9.332;2023-07-20T13:26:41;1.67;;;1.10;;
43319;SDS011;28914;48.722;9.332;2023-07-20T13:32:01;2.03;;;1.20;;
43319;SDS011;28914;48.722;9.332;2023-07-20T13:37:23;2.00;;;1.43;;
43319;SDS011;28914;48.722;9.332;2023-07-20T13:42:42;2.20;;;1.07;;
43319;SDS011;28914;48.722;9.332;2023-07-20T13:48:01;1.57;;;0.80;;
43319;SDS011;28914;48.722;9.332;2023-07-20T13:53:20;2.63;;;1.27;;
43319;SDS011;28914;48.722;9.332;2023-07-20T13:58:40;1.90;;;1.33;;
43319;SDS011;28914;48.722;9.332;2023-07-20T14:04:00;1.70;;;1.33;;
43319;SDS011;28914;48.722;9.332;2023-07-20T14:09:20;1.50;;;0.93;;
43319;SDS011;28914;48.722;9.332;2023-07-20T14:14:39;2.07;;;1.00;;
43319;SDS011;28914;48.722;9.332;2023-07-20T14:19:59;2.00;;;1.23;;
43319;SDS011;28914;48.722;9.332;2023-07-20T14:25:18;2.50;;;1.00;;
43319;SDS011;28914;48.722;9.332;2023-07-20T14:30:37;1.40;;;1.03;;
43319;SDS011;28914;48.722;9.332;2023-07-20T14:35:57;1.57;;;1.00;;
43319;SDS011;28914;48.722;9.332;2023-07-20T14:41:16;3.00;;;1.30;;
43319;SDS011;28914;48.722;9.332;2023-07-20T14:46:35;1.37;;;0.87;;
43319;SDS011;28914;48.722;9.332;2023-07-20T14:51:54;1.30;;;0.87;;
43319;SDS011;28914;48.722;9.332;2023-07-20T14:57:13;3.43;;;1.20;;
43319;SDS011;28914;48.722;9.332;2023-07-20T15:02:33;1.77;;;1.40;;
43319;SDS011;28914;48.722;9.332;2023-07-20T15:07:53;1.63;;;1.30;;
43319;SDS011;28914;48.722;9.332;2023-07-20T15:13:12;1.40;;;1.20;;
43319;SDS011;28914;48.722;9.332;2023-07-20T15:18:32;1.97;;;0.90;;
43319;SDS011;28914;48.722;9.332;2023-07-20T15:23:51;1.10;;;0.90;;
43319;SDS011;28914;48.722;9.332;2023-07-20T15:29:10;1.50;;;1.13;;
43319;SDS011;28914;48.722;9.332;2023-07-20T15:34:29;2.00;;;1.30;;
43319;SDS011;28914;48.722;9.332;2023-07-20T15:39:49;2.37;;;1.37;;
43319;SDS011;28914;48.722;9.332;2023-07-20T15:45:09;1.80;;;1.00;;
43319;SDS011;28914;48.722;9.332;2023-07-20T15:50:28;1.77;;;0.87;;
43319;SDS011;28914;48.722;9.332;2023-07-20T15:55:52;1.20;;;0.80;;
43319;SDS011;28914;48.722;9.332;2023-07-20T16:01:14;1.13;;;0.90;;
43319;SDS011;28914;48.722;9.332;2023-07-20T16:06:34;2.97;;;1.33;;
43319;SDS011;28914;48.722;9.332;2023-07-20T16:11:54;1.40;;;0.90;;
43319;SDS011;28914;48.722;9.332;2023-07-20T16:17:13;1.00;;;0.80;;
43319;SDS011;28914;48.722;9.332;2023-07-20T16:22:32;1.40;;;1.00;;
43319;SDS011;28914;48.722;9.332;2023-07-20T16:27:51;3.93;;;1.03;;
43319;SDS011;28914;48.722;9.332;2023-07-20T16:33:10;1.10;;;0.90;;
43319;SDS011;28914;48.722;9.332;2023-07-20T16:38:30;2.07;;;1.27;;
43319;SDS011;28914;48.722;9.332;2023-07-20T16:43:49;1.43;;;1.00;;
43319;SDS011;28914;48.722;9.332;2023-07-20T16:49:10;1.67;;;1.27;;
43319;SDS011;28914;48.722;9.332;2023-07-20T16:54:31;1.77;;;1.13;;
43319;SDS011;28914;48.722;9.332;2023-07-20T16:59:50;1.60;;;1.20;;
43319;SDS011;28914;48.722;9.332;2023-07-20T17:05:09;1.93;;;1.60;;
43319;SDS011;28914;48.722;9.332;2023-07-20T17:10:28;2.27;;;1.70;;
43319;SDS011;28914;48.722;9.332;2023-07-20T17:15:48;1.70;;;1.20;;
43319;SDS011;28914;48.722;9.332;2023-07-20T17:21:08;1.07;;;0.80;;
43319;SDS011;28914;48.722;9.332;2023-07-20T17:26:27;1.47;;;1.03;;
43319;SDS011;28914;48.722;9.332;2023-07-20T17:31:46;1.57;;;1.27;;
43319;SDS011;28914;48.722;9.332;2023-07-20T17:37:05;1.53;;;1.10;;
43319;SDS011;28914;48.722;9.332;2023-07-20T17:42:25;4.10;;;1.47;;
43319;SDS011;28914;48.722;9.332;2023-07-20T17:47:44;1.43;;;1.10;;
43319;SDS011;28914;48.722;9.332;2023-07-20T17:53:03;1.93;;;0.90;;
43319;SDS011;28914;48.722;9.332;2023-07-20T17:58:23;2.00;;;1.27;;
43319;SDS011;28914;48.722;9.332;2023-07-20T18:03:42;1.10;;;0.83;;
43319;SDS011;28914;48.722;9.332;2023-07-20T18:09:01;1.23;;;1.00;;
43319;SDS011;28914;48.722;9.332;2023-07-20T18:14:21;3.43;;;1.07;;
43319;SDS011;28914;48.722;9.332;2023-07-20T18:19:40;1.87;;;1.03;;
43319;SDS011;28914;48.722;9.332;2023-07-20T18:24:59;1.97;;;1.03;;
43319;SDS011;28914;48.722;9.332;2023-07-20T18:30:18;1.73;;;1.10;;
43319;SDS011;28914;48.722;9.332;2023-07-20T18:35:37;1.73;;;1.10;;
43319;SDS011;28914;48.722;9.332;2023-07-20T18:40:57;2.33;;;1.10;;
43319;SDS011;28914;48.722;9.332;2023-07-20T18:46:17;2.40;;;1.40;;
43319;SDS011;28914;48.722;9.332;2023-07-20T18:51:39;1.40;;;0.90;;
43319;SDS011;28914;48.722;9.332;2023-07-20T18:56:58;1.73;;;1.20;;
43319;SDS011;28914;48.722;9.332;2023-07-20T19:02:17;6.70;;;2.03;;
43319;SDS011;28914;48.722;9.332;2023-07-20T19:07:38;3.13;;;1.83;;
43319;SDS011;28914;48.722;9.332;2023-07-20T19:12:57;2.10;;;1.60;;
43319;SDS011;28914;48.722;9.332;2023-07-20T19:18:16;2.80;;;1.30;;
43319;SDS011;28914;48.722;9.332;2023-07-20T19:23:35;1.70;;;1.00;;
43319;SDS011;28914;48.722;9.332;2023-07-20T19:28:54;2.53;;;1.20;;
43319;SDS011;28914;48.722;9.332;2023-07-20T19:34:14;2.40;;;1.60;;
43319;SDS011;28914;48.722;9.332;2023-07-20T19:39:33;1.60;;;1.10;;
43319;SDS011;28914;48.722;9.332;2023-07-20T19:44:52;1.43;;;1.20;;
43319;SDS011;28914;48.722;9.332;2023-07-20T19:50:11;1.93;;;1.47;;
43319;SDS011;28914;48.722;9.332;2023-07-20T19:55:31;2.97;;;1.53;;
43319;SDS011;28914;48.722;9.332;2023-07-20T20:00:50;3.93;;;1.70;;
43319;SDS011;28914;48.722;9.332;2023-07-20T20:06:10;1.33;;;1.00;;
43319;SDS011;28914;48.722;9.332;2023-07-20T20:11:29;2.80;;;1.67;;
43319;SDS011;28914;48.722;9.332;2023-07-20T20:16:49;2.77;;;1.80;;
43319;SDS011;28914;48.722;9.332;2023-07-20T20:22:08;2.50;;;1.47;;
43319;SDS011;28914;48.722;9.332;2023-07-20T20:27:27;1.83;;;0.80;;
43319;SDS011;28914;48.722;9.332;2023-07-20T20:32:46;1.93;;;1.37;;
43319;SDS011;28914;48.722;9.332;2023-07-20T20:38:05;1.30;;;1.10;;
43319;SDS011;28914;48.722;9.332;2023-07-20T20:43:25;1.37;;;1.20;;
43319;SDS011;28914;48.722;9.332;2023-07-20T20:48:48;1.80;;;1.23;;
43319;SDS011;28914;48.722;9.332;2023-07-20T20:54:10;2.27;;;1.43;;
43319;SDS011;28914;48.722;9.332;2023-07-20T20:59:30;1.87;;;1.47;;
43319;SDS011;28914;48.722;9.332;2023-07-20T21:04:49;2.10;;;1.60;;
43319;SDS011;28914;48.722;9.332;2023-07-20T21:10:09;2.13;;;1.53;;
43319;SDS011;28914;48.722;9.332;2023-07-20T21:15:29;4.80;;;1.73;;
43319;SDS011;28914;48.722;9.332;2023-07-20T21:20:48;1.40;;;1.13;;
43319;SDS011;28914;48.722;9.332;2023-07-20T21:26:08;1.67;;;1.27;;
43319;SDS011;28914;48.722;9.332;2023-07-20T21:31:27;2.30;;;1.70;;
43319;SDS011;28914;48.722;9.332;2023-07-20T21:36:46;1.40;;;1.13;;
43319;SDS011;28914;48.722;9.332;2023-07-20T21:42:05;2.97;;;1.50;;
43319;SDS011;28914;48.722;9.332;2023-07-20T21:47:25;1.53;;;1.27;;
43319;SDS011;28914;48.722;9.332;2023-07-20T21:52:44;1.83;;;1.30;;
43319;SDS011;28914;48.722;9.332;2023-07-20T21:58:03;1.87;;;1.53;;
43319;SDS011;28914;48.722;9.332;2023-07-20T22:03:23;2.30;;;1.33;;
43319;SDS011;28914;48.722;9.332;2023-07-20T22:08:42;4.37;;;1.60;;
43319;SDS011;28914;48.722;9.332;2023-07-20T22:14:01;2.20;;;1.43;;
43319;SDS011;28914;48.722;9.332;2023-07-20T22:19:20;2.43;;;1.80;;
43319;SDS011;28914;48.722;9.332;2023-07-20T22:24:39;2.33;;;1.60;;
43319;SDS011;28914;48.722;9.332;2023-07-20T22:29:58;2.03;;;1.37;;
43319;SDS011;28914;48.722;9.332;2023-07-20T22:35:17;2.10;;;1.53;;
43319;SDS011;28914;48.722;9.332;2023-07-20T22:40:37;2.60;;;1.80;;
43319;SDS011;28914;48.722;9.332;2023-07-20T22:45:56;2.40;;;2.00;;
43319;SDS011;28914;48.722;9.332;2023-07-20T22:51:15;2.03;;;1.50;;
43319;SDS011;28914;48.722;9.332;2023-07-20T22:56:34;3.03;;;1.90;;
43319;SDS011;28914;48.722;9.332;2023-07-20T23:01:54;2.00;;;1.60;;
43319;SDS011;28914;48.722;9.332;2023-07-20T23:07:13;2.23;;;1.87;;
43319;SDS011;28914;48.722;9.332;2023-07-20T23:12:32;1.70;;;1.50;;
43319;SDS011;28914;48.722;9.332;2023-07-20T23:17:51;2.40;;;1.70;;
43319;SDS011;28914;48.722;9.332;2023-07-20T23:23:10;2.70;;;1.93;;
43319;SDS011;28914;48.722;9.332;2023-07-20T23:28:30;2.80;;;1.87;;
43319;SDS011;28914;48.722;9.332;2023-07-20T23:33:49;1.97;;;1.70;;
43319;SDS011;28914;48.722;9.332;2023-07-20T23:39:09;6.23;;;1.53;;
43319;SDS011;28914;48.722;9.332;2023-07-20T23:44:28;1.60;;;1.43;;
43319;SDS011;28914;48.722;9.332;2023-07-20T23:49:48;2.17;;;1.53;;
43319;SDS011;28914;48.722;9.332;2023-07-20T23:55:08;2.30;;;1.50;;
